createdAt,value
2019-04-14T00:07:25.488Z,1.94
2019-04-14T00:09:52.290Z,1.92
2019-04-14T00:12:18.770Z,1.94
2019-04-14T00:14:46.926Z,1.89
2019-04-14T00:17:13.755Z,1.88
2019-04-14T00:19:41.504Z,2.02
2019-04-14T00:22:07.493Z,1.98
2019-04-14T00:24:33.533Z,1.94
2019-04-14T00:27:02.047Z,2.06
2019-04-14T00:29:28.914Z,2.00
2019-04-14T00:31:55.490Z,1.92
2019-04-14T00:34:42.400Z,1.88
2019-04-14T00:42:53.779Z,1.97
2019-04-14T00:45:46.434Z,1.95
2019-04-14T00:50:55.912Z,2.01
2019-04-14T00:53:22.883Z,2.03
2019-04-14T00:55:51.111Z,2.02
2019-04-14T00:58:18.984Z,2.06
2019-04-14T01:00:45.763Z,1.97
2019-04-14T01:03:11.607Z,2.05
2019-04-14T01:05:37.534Z,1.97
2019-04-14T01:08:03.377Z,1.92
2019-04-14T01:10:30.043Z,1.92
2019-04-14T01:12:58.083Z,1.89
2019-04-14T01:15:24.758Z,1.86
2019-04-14T01:17:50.727Z,1.83
2019-04-14T01:20:16.745Z,1.86
2019-04-14T01:22:44.593Z,1.80
2019-04-14T01:25:12.850Z,1.80
2019-04-14T01:27:40.660Z,1.83
2019-04-14T01:30:50.109Z,1.78
2019-04-14T01:33:16.953Z,1.74
2019-04-14T01:35:44.693Z,1.81
2019-04-14T01:38:10.543Z,1.81
2019-04-14T01:40:36.386Z,1.77
2019-04-14T01:43:02.214Z,1.70
2019-04-14T01:45:28.057Z,1.70
2019-04-14T01:47:53.910Z,1.63
2019-04-14T01:55:50.586Z,1.69
2019-04-14T01:58:36.296Z,1.61
2019-04-14T02:03:40.901Z,1.58
2019-04-14T02:06:07.692Z,1.59
2019-04-14T02:08:33.513Z,1.60
2019-04-14T02:10:59.353Z,1.66
2019-04-14T02:13:25.180Z,1.52
2019-04-14T02:15:51.062Z,1.54
2019-04-14T02:18:16.900Z,1.52
2019-04-14T02:20:42.757Z,1.43
2019-04-14T02:23:08.605Z,1.40
2019-04-14T02:25:34.454Z,1.44
2019-04-14T02:28:00.276Z,1.35
2019-04-14T02:30:33.992Z,1.41
2019-04-14T02:33:26.621Z,1.40
2019-04-14T02:38:31.060Z,1.33
2019-04-14T02:40:45.916Z,1.37
2019-04-14T02:45:57.865Z,1.36
2019-04-14T02:48:36.097Z,1.44
2019-04-14T02:50:56.129Z,1.37
2019-04-14T02:55:57.785Z,1.23
2019-04-14T02:58:23.872Z,1.18
2019-04-14T03:00:51.147Z,1.14
2019-04-14T03:03:16.881Z,1.11
2019-04-14T03:05:44.746Z,1.10
2019-04-14T03:08:36.059Z,1.11
2019-04-14T03:11:17.426Z,1.07
2019-04-14T03:19:43.991Z,0.93
2019-04-14T03:22:33.163Z,0.97
2019-04-14T03:25:02.744Z,0.93
2019-04-14T03:34:06.211Z,0.84
2019-04-14T03:41:10.783Z,0.87
2019-04-14T03:43:30.599Z,0.79
2019-04-14T03:46:03.794Z,0.80
2019-04-14T03:48:44.866Z,0.80
2019-04-14T03:50:53.758Z,0.68
2019-04-14T03:53:22.982Z,0.69
2019-04-14T03:56:07.058Z,0.79
2019-04-14T03:58:29.748Z,0.74
2019-04-14T04:00:55.602Z,0.73
2019-04-14T04:03:21.827Z,0.74
2019-04-14T04:05:49.951Z,0.74
2019-04-14T04:08:18.032Z,0.68
2019-04-14T04:11:04.664Z,0.72
2019-04-14T04:13:30.529Z,0.55
2019-04-14T04:21:37.915Z,0.27
2019-04-14T04:24:23.768Z,0.33
2019-04-14T04:27:09.537Z,0.25
2019-04-14T04:29:55.257Z,0.40
2019-04-14T04:32:41.098Z,0.43
2019-04-14T04:40:31.332Z,0.54
2019-04-14T04:42:57.319Z,0.51
2019-04-14T04:45:23.518Z,0.53
2019-04-14T04:47:49.549Z,0.57
2019-04-14T04:50:15.418Z,0.18
2019-04-14T04:52:41.262Z,0.23
2019-04-14T04:55:07.267Z,0.03
2019-04-14T04:57:33.145Z,-0.23
2019-04-14T04:59:59.007Z,-0.24
2019-04-14T05:02:24.843Z,-0.09
2019-04-14T05:04:50.702Z,0.04
2019-04-14T05:07:16.749Z,0.23
2019-04-14T05:09:47.324Z,0.35
2019-04-14T05:12:17.848Z,0.20
2019-04-14T05:15:01.024Z,0.25
2019-04-14T05:17:32.028Z,0.37
2019-04-14T05:19:58.407Z,0.34
2019-04-14T05:22:24.741Z,0.16
2019-04-14T05:24:50.828Z,-0.01
2019-04-14T05:27:16.779Z,0.05
2019-04-14T05:29:43.036Z,-0.03
2019-04-14T05:32:08.961Z,0.04
2019-04-14T05:34:34.807Z,0.02
2019-04-14T05:37:00.741Z,0.16
2019-04-14T05:39:26.584Z,0.27
2019-04-14T05:42:03.836Z,0.35
2019-04-14T05:44:20.782Z,0.34
2019-04-14T05:46:46.998Z,0.34
2019-04-14T05:49:24.535Z,0.25
2019-04-14T05:51:41.564Z,0.42
2019-04-14T05:54:07.809Z,0.50
2019-04-14T05:56:36.105Z,0.55
2019-04-14T05:59:02.262Z,0.52
2019-04-14T06:01:29.214Z,0.49
2019-04-14T06:03:56.026Z,0.76
2019-04-14T06:06:22.004Z,0.80
2019-04-14T06:08:47.884Z,0.58
2019-04-14T06:11:13.752Z,0.83
2019-04-14T06:13:39.616Z,0.77
2019-04-14T06:16:05.555Z,0.78
2019-04-14T06:18:31.503Z,0.83
2019-04-14T06:20:57.413Z,0.86
2019-04-14T06:23:23.299Z,0.91
2019-04-14T06:25:49.155Z,0.95
2019-04-14T06:28:14.997Z,0.91
2019-04-14T06:31:00.735Z,0.98
2019-04-14T06:36:33.945Z,1.19
2019-04-14T06:39:19.701Z,1.54
2019-04-14T06:41:45.524Z,1.50
2019-04-14T06:44:11.366Z,1.35
2019-04-14T06:46:37.238Z,1.38
2019-04-14T06:49:03.267Z,1.52
2019-04-14T06:51:29.150Z,1.70
2019-04-14T06:53:54.991Z,1.78
2019-04-14T06:56:20.838Z,2.12
2019-04-14T06:58:46.665Z,2.33
2019-04-14T07:01:12.547Z,2.46
2019-04-14T07:03:38.414Z,2.48
2019-04-14T07:06:04.258Z,2.93
2019-04-14T07:08:30.097Z,2.88
2019-04-14T07:10:55.969Z,3.01
2019-04-14T07:13:21.864Z,3.07
2019-04-14T07:15:47.867Z,3.03
2019-04-14T07:18:13.755Z,3.15
2019-04-14T07:20:39.587Z,2.98
2019-04-14T07:23:05.450Z,3.10
2019-04-14T07:25:31.291Z,3.14
2019-04-14T07:27:57.136Z,3.07
2019-04-14T07:30:42.854Z,3.37
2019-04-14T07:33:28.700Z,3.50
2019-04-14T07:36:14.521Z,3.65
2019-04-14T07:39:00.263Z,3.80
2019-04-14T07:41:45.969Z,4.34
2019-04-14T07:44:31.701Z,4.25
2019-04-14T07:50:14.078Z,4.64
2019-04-14T07:55:39.799Z,4.74
2019-04-14T07:58:25.514Z,4.72
2019-04-14T08:01:11.256Z,4.93
2019-04-14T08:03:56.977Z,5.29
2019-04-14T08:06:22.860Z,5.28
2019-04-14T08:08:48.712Z,5.12
2019-04-14T08:11:14.576Z,4.96
2019-04-14T08:13:40.505Z,5.05
2019-04-14T08:16:06.334Z,5.20
2019-04-14T08:18:32.225Z,5.09
2019-04-14T08:20:58.078Z,5.18
2019-04-14T08:23:23.915Z,5.22
2019-04-14T08:25:49.766Z,5.49
2019-04-14T08:28:15.666Z,5.31
2019-04-14T08:30:41.512Z,5.64
2019-04-14T08:33:07.417Z,5.68
2019-04-14T08:35:33.373Z,5.67
2019-04-14T08:37:59.204Z,6.06
2019-04-14T08:40:25.068Z,6.02
2019-04-14T08:43:10.799Z,6.04
2019-04-14T08:48:33.882Z,6.05
2019-04-14T08:54:13.953Z,6.32
2019-04-14T09:00:06.941Z,6.34
2019-04-14T09:05:40.064Z,6.23
2019-04-14T09:08:25.785Z,6.22
2019-04-14T09:11:11.527Z,6.64
2019-04-14T09:13:37.374Z,6.41
2019-04-14T09:16:03.249Z,6.28
2019-04-14T09:18:49.087Z,6.27
2019-04-14T09:21:14.971Z,6.55
2019-04-14T09:23:40.795Z,6.73
2019-04-14T09:26:06.676Z,6.90
2019-04-14T09:28:32.539Z,6.86
2019-04-14T09:30:58.407Z,6.95
2019-04-14T09:36:18.341Z,7.30
2019-04-14T09:38:44.190Z,7.20
2019-04-14T09:41:29.881Z,6.88
2019-04-14T09:43:55.737Z,6.87
2019-04-14T09:46:21.592Z,7.08
2019-04-14T09:48:47.482Z,7.33
2019-04-14T09:51:13.343Z,7.28
2019-04-14T09:53:39.201Z,6.77
2019-04-14T09:56:05.017Z,7.13
2019-04-14T09:58:30.892Z,6.77
2019-04-14T10:00:56.725Z,6.84
2019-04-14T10:03:22.547Z,7.21
2019-04-14T10:05:48.393Z,7.39
2019-04-14T10:08:14.340Z,7.77
2019-04-14T10:10:40.181Z,8.03
2019-04-14T10:13:06.008Z,7.77
2019-04-14T10:15:31.858Z,7.56
2019-04-14T10:17:57.990Z,7.18
2019-04-14T10:20:23.876Z,7.55
2019-04-14T10:22:49.696Z,7.52
2019-04-14T10:25:57.183Z,7.15
2019-04-14T10:28:23.019Z,7.13
2019-04-14T10:30:48.861Z,6.95
2019-04-14T10:33:14.695Z,6.91
2019-04-14T10:35:40.549Z,7.17
2019-04-14T10:38:06.386Z,7.22
2019-04-14T10:40:32.239Z,7.25
2019-04-14T10:42:58.107Z,7.56
2019-04-14T10:45:23.960Z,7.57
2019-04-14T10:47:49.817Z,7.73
2019-04-14T10:50:15.666Z,7.92
2019-04-14T10:52:41.515Z,7.85
2019-04-14T10:55:48.996Z,7.54
2019-04-14T10:58:34.728Z,7.73
2019-04-14T11:01:00.572Z,7.90
2019-04-14T11:03:26.519Z,7.54
2019-04-14T11:06:12.230Z,7.83
2019-04-14T11:08:38.082Z,7.58
2019-04-14T11:11:03.916Z,7.63
2019-04-14T11:13:29.857Z,8.03
2019-04-14T11:15:55.692Z,7.70
2019-04-14T11:18:21.551Z,7.70
2019-04-14T11:20:47.422Z,7.04
2019-04-14T11:23:13.254Z,7.12
2019-04-14T11:25:39.117Z,7.05
2019-04-14T11:28:05.040Z,7.23
2019-04-14T11:30:30.922Z,7.24
2019-04-14T11:33:16.618Z,7.01
2019-04-14T11:36:02.355Z,6.77
2019-04-14T11:43:49.177Z,6.85
2019-04-14T11:46:34.986Z,6.89
2019-04-14T11:51:55.188Z,6.95
2019-04-14T11:54:35.784Z,7.23
2019-04-14T11:57:01.636Z,7.23
2019-04-14T11:59:47.364Z,7.62
2019-04-14T12:02:53.125Z,7.83
2019-04-14T12:05:58.697Z,7.30
2019-04-14T12:09:04.298Z,7.32
2019-04-14T12:11:30.236Z,7.32
2019-04-14T12:13:56.101Z,7.01
2019-04-14T12:16:22.039Z,7.00
2019-04-14T12:18:47.897Z,7.42
2019-04-14T12:21:13.767Z,7.65
2019-04-14T12:23:39.592Z,7.23
2019-04-14T12:26:06.101Z,7.19
2019-04-14T12:28:53.725Z,6.96
2019-04-14T12:31:39.659Z,6.93
2019-04-14T12:34:25.447Z,6.77
2019-04-14T12:36:51.325Z,6.77
2019-04-14T12:39:58.802Z,6.77
2019-04-14T12:55:36.788Z,6.58
2019-04-14T13:01:09.949Z,6.24
2019-04-14T13:06:12.977Z,6.28
2019-04-14T13:08:38.883Z,6.18
2019-04-14T13:13:52.134Z,5.99
2019-04-14T13:16:17.962Z,5.97
2019-04-14T13:18:43.852Z,5.93
2019-04-14T13:21:09.699Z,6.07
2019-04-14T13:23:35.959Z,6.00
2019-04-14T13:28:47.371Z,6.20
2019-04-14T13:31:13.218Z,6.05
2019-04-14T13:33:39.181Z,6.12
2019-04-14T13:36:05.071Z,5.92
2019-04-14T13:38:30.921Z,5.98
2019-04-14T13:40:56.773Z,6.10
2019-04-14T13:43:42.527Z,5.79
2019-04-14T13:46:08.411Z,5.79
2019-04-14T13:48:34.297Z,5.93
2019-04-14T13:51:00.144Z,5.97
2019-04-14T13:53:25.991Z,5.92
2019-04-14T13:55:51.841Z,6.00
2019-04-14T13:58:17.670Z,5.97
2019-04-14T14:00:43.536Z,6.00
2019-04-14T14:03:09.389Z,5.94
2019-04-14T14:05:35.245Z,5.78
2019-04-14T14:08:01.083Z,5.92
2019-04-14T14:13:23.836Z,5.95
2019-04-14T14:16:09.569Z,5.93
2019-04-14T14:29:07.413Z,5.95
2019-04-14T14:31:33.265Z,5.92
2019-04-14T14:33:59.091Z,6.04
2019-04-14T14:36:24.935Z,6.00
2019-04-14T14:38:50.776Z,6.18
2019-04-14T14:44:04.467Z,5.95
2019-04-14T14:54:45.449Z,6.30
2019-04-14T14:57:11.310Z,6.49
2019-04-14T14:59:37.169Z,6.54
2019-04-14T15:04:35.498Z,6.56
2019-04-14T15:07:01.468Z,6.57
2019-04-14T15:09:27.313Z,6.53
2019-04-14T15:11:53.193Z,6.43
2019-04-14T15:17:04.815Z,5.91
2019-04-14T15:19:30.695Z,5.82
2019-04-14T15:21:56.558Z,5.67
2019-04-14T15:24:22.394Z,5.51
2019-04-14T15:27:08.337Z,5.58
2019-04-14T15:29:34.167Z,5.55
2019-04-14T15:31:59.996Z,5.59
2019-04-14T15:34:25.907Z,5.71
2019-04-14T15:36:51.824Z,5.73
2019-04-14T15:39:17.725Z,5.55
2019-04-14T15:41:43.661Z,5.75
2019-04-14T15:44:09.547Z,5.46
2019-04-14T15:46:35.392Z,5.40
2019-04-14T15:49:01.222Z,5.31
2019-04-14T15:51:27.081Z,5.36
2019-04-14T15:53:52.924Z,5.35
2019-04-14T15:56:38.648Z,5.40
2019-04-14T15:59:44.261Z,5.28
2019-04-14T16:05:45.218Z,5.51
2019-04-14T16:13:38.643Z,5.43
2019-04-14T16:16:24.353Z,5.36
2019-04-14T16:21:24.126Z,5.26
2019-04-14T16:23:51.067Z,5.25
2019-04-14T16:29:24.989Z,5.35
2019-04-14T16:32:10.722Z,5.20
2019-04-14T16:37:30.295Z,5.10
2019-04-14T16:39:56.177Z,5.30
2019-04-14T16:42:41.889Z,5.22
2019-04-14T16:45:49.390Z,5.21
2019-04-14T16:48:15.246Z,5.29
2019-04-14T16:50:41.096Z,5.28
2019-04-14T16:53:26.918Z,5.26
2019-04-14T16:58:50.151Z,5.37
2019-04-14T17:01:35.920Z,5.29
2019-04-14T17:04:21.725Z,5.05
2019-04-14T17:06:47.605Z,5.10
2019-04-14T17:09:33.407Z,5.11
2019-04-14T17:11:59.547Z,5.09
2019-04-14T17:14:46.988Z,5.16
2019-04-14T17:17:32.709Z,5.13
2019-04-14T17:20:18.463Z,5.10
2019-04-14T17:28:17.909Z,5.02
2019-04-14T17:31:03.648Z,4.98
2019-04-14T17:34:09.274Z,4.94
2019-04-14T17:36:54.986Z,4.94
2019-04-14T17:40:00.602Z,4.99
2019-04-14T17:46:13.442Z,4.86
2019-04-14T17:52:06.428Z,5.03
2019-04-14T17:54:52.157Z,5.03
2019-04-14T18:00:15.179Z,4.98
2019-04-14T18:10:48.926Z,5.04
2019-04-14T18:16:30.620Z,5.11
2019-04-14T18:19:16.378Z,5.18
2019-04-14T18:21:55.191Z,5.05
2019-04-14T18:24:21.094Z,5.05
2019-04-14T18:26:46.984Z,4.92
2019-04-14T18:29:32.693Z,4.94
2019-04-14T18:35:05.792Z,5.09
2019-04-14T18:40:58.877Z,4.97
2019-04-14T18:43:44.628Z,5.06
2019-04-14T18:49:17.736Z,5.04
2019-04-14T18:52:03.474Z,5.10
2019-04-14T18:54:54.812Z,5.11
2019-04-14T19:00:45.982Z,5.14
2019-04-14T19:03:11.876Z,5.04
2019-04-14T19:05:37.771Z,5.21
2019-04-14T19:08:03.587Z,5.12
2019-04-14T19:10:29.478Z,5.07
2019-04-14T19:13:15.220Z,5.07
2019-04-14T19:16:20.829Z,5.12
2019-04-14T19:19:01.496Z,5.12
2019-04-14T19:24:14.746Z,5.18
2019-04-14T19:26:40.583Z,5.23
2019-04-14T19:29:06.448Z,5.23
2019-04-14T19:31:32.305Z,5.24
2019-04-14T19:33:58.150Z,5.23
2019-04-14T19:36:24.023Z,5.25
2019-04-14T19:38:49.865Z,5.23
2019-04-14T19:41:35.646Z,5.20
2019-04-14T19:44:21.454Z,4.96
2019-04-14T19:46:47.360Z,4.96
2019-04-14T19:49:13.232Z,5.10
2019-04-14T19:51:39.356Z,5.00
2019-04-14T19:54:05.244Z,4.97
2019-04-14T19:56:31.128Z,4.89
2019-04-14T19:58:56.971Z,5.04
2019-04-14T20:01:22.869Z,4.96
2019-04-14T20:03:48.771Z,4.95
2019-04-14T20:06:14.702Z,4.99
2019-04-14T20:08:40.560Z,4.97
2019-04-14T20:11:06.570Z,5.06
2019-04-14T20:16:26.134Z,4.83
2019-04-14T20:19:11.907Z,4.80
2019-04-14T20:24:31.438Z,4.78
2019-04-14T20:29:51.192Z,4.89
2019-04-14T20:37:26.327Z,5.10
2019-04-14T20:39:52.185Z,5.01
2019-04-14T20:42:18.354Z,4.97
2019-04-14T20:44:47.950Z,4.97
2019-04-14T20:50:01.340Z,4.86
2019-04-14T20:52:47.293Z,4.90
2019-04-14T20:55:45.939Z,4.88
2019-04-14T20:58:01.014Z,4.85
2019-04-14T21:00:46.814Z,4.78
2019-04-14T21:03:32.602Z,4.91
2019-04-14T21:06:38.387Z,4.81
2019-04-14T21:09:45.891Z,4.84
2019-04-14T21:17:56.966Z,4.67
2019-04-14T21:23:35.845Z,4.83
2019-04-14T21:26:21.583Z,4.73
2019-04-14T21:29:07.589Z,4.75
2019-04-14T21:31:53.359Z,4.83
2019-04-14T21:37:33.990Z,4.71
2019-04-14T21:40:19.718Z,4.82
2019-04-14T21:45:31.142Z,4.75
2019-04-14T21:47:57.357Z,4.80
2019-04-14T21:50:23.201Z,4.87
2019-04-14T21:52:50.034Z,4.86
2019-04-14T21:55:16.945Z,4.77
2019-04-14T21:58:02.668Z,4.88
2019-04-14T22:01:10.158Z,4.87
2019-04-14T22:03:55.875Z,4.78
2019-04-14T22:08:58.902Z,4.74
2019-04-14T22:16:47.684Z,4.77
2019-04-14T22:19:13.553Z,4.87
2019-04-14T22:21:39.399Z,4.70
2019-04-14T22:24:05.231Z,4.75
2019-04-14T22:26:31.173Z,4.77
2019-04-14T22:28:57.116Z,4.70
2019-04-14T22:31:23.096Z,4.76
2019-04-14T22:33:48.952Z,4.70
2019-04-14T22:36:14.799Z,4.71
2019-04-14T22:38:40.694Z,4.62
2019-04-14T22:41:06.526Z,4.55
2019-04-14T22:43:32.392Z,4.59
2019-04-14T22:46:39.896Z,4.55
2019-04-14T22:49:05.734Z,4.63
2019-04-14T22:51:31.580Z,4.66
2019-04-14T22:53:57.440Z,4.60
2019-04-14T22:56:23.281Z,4.62
2019-04-14T22:58:49.147Z,4.69
2019-04-14T23:01:34.849Z,4.71
2019-04-14T23:06:54.492Z,4.79
2019-04-14T23:09:40.213Z,4.94
2019-04-14T23:18:06.793Z,4.78
2019-04-14T23:25:43.936Z,4.70
2019-04-14T23:28:09.768Z,4.63
2019-04-14T23:30:55.601Z,4.51
2019-04-14T23:33:21.454Z,4.51
2019-04-14T23:35:47.323Z,4.60
2019-04-14T23:38:13.148Z,4.64
2019-04-14T23:40:39.069Z,4.60
2019-04-14T23:43:04.856Z,4.59
2019-04-14T23:45:30.710Z,4.62
2019-04-14T23:47:56.554Z,4.60
2019-04-14T23:50:22.426Z,4.69
2019-04-14T23:52:48.264Z,4.75
2019-04-14T23:55:14.175Z,4.67
2019-04-14T23:57:39.956Z,4.66
